Time;durP1;ratioP1;P1;durP2;ratioP2;P2;SDS_P1;SDS_P2;PMS_P1;PMS_P2;Temp;Humidity;BMP_temperature;BMP_pressure;BME280_temperature;BME280_humidity;BME280_pressure;Samples;Min_cycle;Max_cycle;Signal;HPM_P1;HPM_P2
2021/07/07 00:07:48;;;;;;;7.03;4.40;;;13.60;99.90;;;;;;5300288;23;20803;-49
2021/07/07 00:10:18;;;;;;;6.17;4.47;;;13.60;99.90;;;;;;5039100;28;20501;-54
2021/07/07 00:12:47;;;;;;;5.63;4.20;;;13.60;99.90;;;;;;5032102;28;20495;-57
2021/07/07 00:15:17;;;;;;;8.60;4.67;;;13.50;99.90;;;;;;5027222;28;20915;-51
2021/07/07 00:17:44;;;;;;;6.53;5.83;;;13.50;99.90;;;;;;5030771;28;20466;-56
2021/07/07 00:20:17;;;;;;;11.70;6.50;;;13.50;99.90;;;;;;5027863;28;20467;-55
2021/07/07 00:22:46;;;;;;;8.87;5.83;;;13.50;99.90;;;;;;5027845;28;20474;-54
2021/07/07 00:25:14;;;;;;;7.60;6.40;;;13.50;99.90;;;;;;5025894;28;20793;-56
2021/07/07 00:27:41;;;;;;;6.17;5.27;;;13.50;99.90;;;;;;5029357;28;20468;-46
2021/07/07 00:30:12;;;;;;;8.40;4.70;;;13.40;99.90;;;;;;5025871;28;20490;-53
2021/07/07 00:32:41;;;;;;;10.13;4.90;;;13.40;99.90;;;;;;5033352;28;20463;-53
2021/07/07 00:35:11;;;;;;;6.80;5.20;;;13.40;99.90;;;;;;5037422;28;20438;-53
2021/07/07 00:37:39;;;;;;;7.47;5.13;;;13.20;99.90;;;;;;5028866;28;20831;-50
2021/07/07 00:40:08;;;;;;;5.23;4.57;;;13.20;99.90;;;;;;5028480;28;20437;-49
2021/07/07 00:42:35;;;;;;;6.23;4.43;;;13.20;99.90;;;;;;5029116;28;20809;-54
2021/07/07 00:45:04;;;;;;;6.90;4.80;;;13.10;99.90;;;;;;5019145;28;20702;-50
2021/07/07 00:47:31;;;;;;;9.33;5.93;;;13.00;99.90;;;;;;5018392;28;20472;-49
2021/07/07 00:49:58;;;;;;;9.50;4.40;;;12.90;99.90;;;;;;5019049;28;20464;-50
2021/07/07 00:52:25;;;;;;;5.73;4.30;;;12.90;99.90;;;;;;5018390;28;20464;-49
2021/07/07 00:54:52;;;;;;;7.40;4.63;;;12.90;99.90;;;;;;5018896;28;20468;-50
2021/07/07 00:57:24;;;;;;;9.90;5.20;;;13.10;99.90;;;;;;5018241;28;20468;-50
2021/07/07 00:59:58;;;;;;;6.30;4.50;;;12.90;99.90;;;;;;5018949;28;20463;-50
2021/07/07 01:02:27;;;;;;;5.53;4.50;;;12.90;99.90;;;;;;5017462;28;20468;-51
2021/07/07 01:04:55;;;;;;;6.63;4.90;;;12.90;99.90;;;;;;5031781;28;21113;-51
2021/07/07 01:07:24;;;;;;;6.60;5.10;;;12.90;99.90;;;;;;5015633;28;20468;-57
2021/07/07 01:09:51;;;;;;;7.03;5.00;;;12.80;99.90;;;;;;5026645;28;20893;-56
2021/07/07 01:12:21;;;;;;;8.10;4.97;;;12.80;99.90;;;;;;5036800;28;20494;-57
2021/07/07 01:14:50;;;;;;;6.63;4.90;;;12.80;99.90;;;;;;5029885;28;20887;-57
2021/07/07 01:17:19;;;;;;;8.70;5.10;;;12.90;99.90;;;;;;5018534;28;20474;-57
2021/07/07 01:19:46;;;;;;;6.73;4.27;;;12.80;99.90;;;;;;5038285;28;20459;-57
2021/07/07 01:22:17;;;;;;;8.13;5.07;;;12.80;99.90;;;;;;5028498;28;20455;-57
2021/07/07 01:24:47;;;;;;;7.63;4.83;;;12.70;99.90;;;;;;5035927;28;20463;-56
2021/07/07 01:27:15;;;;;;;6.93;4.60;;;12.70;99.90;;;;;;5021736;28;20474;-55
2021/07/07 01:29:42;;;;;;;10.30;5.90;;;12.80;99.90;;;;;;5018886;28;20468;-53
2021/07/07 01:32:09;;;;;;;8.50;5.50;;;12.90;99.90;;;;;;5018074;28;20574;-51
2021/07/07 01:34:38;;;;;;;9.63;5.17;;;12.90;99.90;;;;;;5020214;28;20535;-57
2021/07/07 01:37:06;;;;;;;10.30;4.83;;;12.90;99.90;;;;;;5034715;28;20527;-57
2021/07/07 01:39:34;;;;;;;9.70;5.10;;;12.90;99.90;;;;;;5018621;28;20467;-53
2021/07/07 01:42:01;;;;;;;6.97;4.87;;;12.90;99.90;;;;;;5020880;28;20554;-54
2021/07/07 01:44:31;;;;;;;6.27;4.60;;;12.80;99.90;;;;;;5034490;28;20947;-53
2021/07/07 01:46:58;;;;;;;5.23;4.20;;;12.80;99.90;;;;;;5021862;28;20459;-56
2021/07/07 01:49:25;;;;;;;10.03;5.53;;;12.80;99.90;;;;;;5032835;28;20464;-54
2021/07/07 01:51:52;;;;;;;6.80;5.07;;;12.80;99.90;;;;;;5017671;28;20899;-56
2021/07/07 01:54:19;;;;;;;8.90;5.10;;;12.80;99.90;;;;;;5018381;28;20460;-56
2021/07/07 01:56:47;;;;;;;7.13;5.17;;;12.80;99.90;;;;;;5017954;28;20752;-57
2021/07/07 01:59:14;;;;;;;5.00;4.50;;;12.90;99.90;;;;;;5022088;28;20478;-55
2021/07/07 02:01:41;;;;;;;9.90;5.30;;;12.90;99.90;;;;;;5033383;28;20460;-55
2021/07/07 02:04:08;;;;;;;7.73;4.90;;;13.00;99.90;;;;;;5014223;28;20480;-54
2021/07/07 02:06:36;;;;;;;7.60;4.60;;;13.00;99.90;;;;;;5019024;28;20533;-57
2021/07/07 02:09:06;;;;;;;5.63;4.70;;;12.90;99.90;;;;;;5017802;28;20877;-57
2021/07/07 02:11:34;;;;;;;12.00;4.83;;;12.90;99.90;;;;;;5022654;28;20491;-57
2021/07/07 02:14:04;;;;;;;9.00;5.20;;;12.90;99.90;;;;;;5033242;28;20910;-57
2021/07/07 02:16:31;;;;;;;7.57;5.27;;;12.90;99.90;;;;;;5031330;28;20868;-57
2021/07/07 02:18:58;;;;;;;7.00;4.80;;;13.00;99.90;;;;;;5016982;28;20435;-57
2021/07/07 02:21:27;;;;;;;8.50;5.57;;;13.10;99.90;;;;;;5017478;28;20522;-57
2021/07/07 02:23:55;;;;;;;5.20;4.47;;;13.00;99.90;;;;;;5023454;28;20465;-53
2021/07/07 02:26:23;;;;;;;7.20;4.20;;;13.00;99.90;;;;;;5029683;28;20646;-54
2021/07/07 02:28:50;;;;;;;7.87;5.10;;;13.00;99.90;;;;;;5017145;28;20530;-50
2021/07/07 02:31:19;;;;;;;6.20;4.90;;;13.00;99.90;;;;;;5016324;28;20495;-54
2021/07/07 02:33:46;;;;;;;8.40;4.47;;;13.10;99.90;;;;;;5017162;28;20946;-53
2021/07/07 02:36:13;;;;;;;9.20;4.67;;;13.20;99.90;;;;;;5017560;28;20468;-51
2021/07/07 02:38:40;;;;;;;9.67;4.80;;;13.30;99.90;;;;;;5021200;28;20521;-53
2021/07/07 02:41:07;;;;;;;8.13;4.27;;;13.30;99.90;;;;;;5017193;28;20467;-52
2021/07/07 02:43:37;;;;;;;6.73;4.40;;;13.30;99.90;;;;;;5016366;28;20468;-51
2021/07/07 02:46:05;;;;;;;8.47;4.10;;;13.20;99.90;;;;;;5023381;28;20462;-53
2021/07/07 02:48:33;;;;;;;8.50;5.67;;;13.20;99.90;;;;;;5030069;28;20463;-56
2021/07/07 02:51:00;;;;;;;9.03;5.03;;;13.10;99.90;;;;;;5030090;28;20548;-49
2021/07/07 02:53:27;;;;;;;7.13;5.20;;;13.10;99.90;;;;;;5036583;28;20462;-54
2021/07/07 02:55:54;;;;;;;8.00;5.37;;;13.00;99.90;;;;;;5022656;28;20526;-53
2021/07/07 02:58:21;;;;;;;8.33;4.80;;;13.10;99.90;;;;;;5031516;28;20884;-57
2021/07/07 03:00:50;;;;;;;8.97;5.50;;;13.20;99.90;;;;;;5022465;28;20751;-57
2021/07/07 03:03:19;;;;;;;10.70;6.83;;;13.40;99.90;;;;;;5011939;28;20468;-56
2021/07/07 03:05:50;;;;;;;7.50;5.80;;;13.40;99.90;;;;;;5015311;28;20916;-56
2021/07/07 03:08:19;;;;;;;8.70;5.83;;;13.20;99.90;;;;;;5016575;28;20939;-57
2021/07/07 03:10:47;;;;;;;9.77;4.97;;;13.30;99.90;;;;;;5016796;28;20475;-56
2021/07/07 03:13:15;;;;;;;11.50;5.27;;;13.40;99.90;;;;;;5031005;28;20973;-48
2021/07/07 03:15:43;;;;;;;11.33;4.90;;;13.40;99.90;;;;;;5036512;28;20470;-53
2021/07/07 03:18:11;;;;;;;6.43;4.97;;;13.40;99.90;;;;;;5020830;28;20512;-47
2021/07/07 03:20:39;;;;;;;7.67;4.50;;;13.40;99.90;;;;;;5032829;28;20876;-50
2021/07/07 03:23:10;;;;;;;8.70;4.57;;;13.40;99.90;;;;;;5018724;28;20542;-51
2021/07/07 03:25:38;;;;;;;6.37;4.60;;;13.40;99.90;;;;;;5016723;28;20467;-53
2021/07/07 03:28:05;;;;;;;6.67;4.30;;;13.30;99.90;;;;;;5034319;28;20463;-51
2021/07/07 03:30:33;;;;;;;9.10;4.30;;;13.30;99.90;;;;;;5018987;28;20507;-56
2021/07/07 03:33:01;;;;;;;8.27;4.60;;;13.30;99.90;;;;;;5016422;28;21010;-52
2021/07/07 03:35:28;;;;;;;8.30;4.30;;;13.20;99.90;;;;;;5033371;28;20915;-51
2021/07/07 03:37:56;;;;;;;8.53;4.43;;;13.20;99.90;;;;;;5019037;28;20464;-50
2021/07/07 03:40:25;;;;;;;7.03;4.07;;;13.20;99.90;;;;;;5035614;28;20957;-51
2021/07/07 03:42:53;;;;;;;9.87;5.43;;;13.20;99.90;;;;;;5036153;28;20788;-51
2021/07/07 03:45:20;;;;;;;9.63;4.67;;;13.30;99.90;;;;;;5036127;28;20472;-51
2021/07/07 03:47:48;;;;;;;7.87;4.60;;;13.30;99.90;;;;;;5036692;28;20474;-55
2021/07/07 03:50:16;;;;;;;6.77;4.63;;;13.40;99.90;;;;;;5017373;28;20908;-54
2021/07/07 03:52:43;;;;;;;10.53;4.73;;;13.40;99.90;;;;;;5035176;28;20586;-53
2021/07/07 03:55:13;;;;;;;8.60;4.67;;;13.50;99.90;;;;;;5017093;28;20468;-51
2021/07/07 04:37:50;;;;;;;9.03;4.60;;;14.00;99.90;;;;;;4929022;22;20495;-56
2021/07/07 04:40:19;;;;;;;10.00;4.27;;;14.00;99.90;;;;;;5019501;28;20455;-53
2021/07/07 04:42:47;;;;;;;12.17;4.80;;;14.10;99.90;;;;;;5019114;28;20522;-50
2021/07/07 04:45:15;;;;;;;7.70;4.30;;;14.20;99.90;;;;;;5019403;28;20463;-56
2021/07/07 04:47:42;;;;;;;6.90;4.30;;;14.40;99.90;;;;;;5019150;28;20456;-55
2021/07/07 04:50:18;;;;;;;7.60;3.90;;;14.50;99.90;;;;;;5019502;28;20559;-52
2021/07/07 05:32:42;;;;;;;6.87;3.70;;;16.30;99.90;;;;;;3269088;22;20950;-57
2021/07/07 05:35:13;;;;;;;6.93;3.40;;;16.30;99.90;;;;;;5038492;28;20463;-56
2021/07/07 05:37:41;;;;;;;7.40;4.33;;;16.40;99.90;;;;;;5038612;28;20887;-56
2021/07/07 05:40:09;;;;;;;6.80;4.10;;;16.30;99.90;;;;;;5020291;28;20801;-53
2021/07/07 05:42:36;;;;;;;6.63;4.40;;;16.40;99.90;;;;;;5018333;28;20464;-57
2021/07/07 05:45:04;;;;;;;7.30;4.13;;;16.40;99.90;;;;;;5018267;28;20476;-56
2021/07/07 05:47:31;;;;;;;5.43;3.40;;;16.60;99.90;;;;;;5018387;28;20464;-53
2021/07/07 05:50:00;;;;;;;5.43;3.40;;;16.80;99.90;;;;;;5018408;28;20464;-56
2021/07/07 05:52:27;;;;;;;5.10;3.70;;;17.00;99.90;;;;;;5017398;28;20495;-56
2021/07/07 05:54:57;;;;;;;9.17;3.73;;;17.30;99.90;;;;;;5018053;28;20468;-53
2021/07/07 05:57:37;;;;;;;5.00;3.60;;;17.50;99.90;;;;;;5018389;28;20471;-53
2021/07/07 06:00:07;;;;;;;7.43;3.63;;;17.70;99.90;;;;;;5017604;28;20879;-51
2021/07/07 06:02:34;;;;;;;8.07;3.03;;;17.90;99.90;;;;;;5016437;28;20555;-57
2021/07/07 06:05:03;;;;;;;4.47;3.60;;;18.10;99.90;;;;;;5013226;28;20468;-55
2021/07/07 06:07:30;;;;;;;5.37;3.90;;;18.30;99.90;;;;;;5017858;28;20468;-49
2021/07/07 06:09:57;;;;;;;4.03;3.30;;;18.40;99.90;;;;;;5017286;28;20475;-53
2021/07/07 06:12:31;;;;;;;4.10;3.10;;;18.70;99.90;;;;;;5017376;28;20500;-51
2021/07/07 06:14:58;;;;;;;5.07;3.50;;;18.80;99.90;;;;;;5017169;28;20460;-50
2021/07/07 06:17:25;;;;;;;8.00;2.97;;;19.00;99.90;;;;;;5017850;28;20464;-47
2021/07/07 06:19:54;;;;;;;4.40;3.33;;;19.10;99.90;;;;;;5017810;28;20892;-50
2021/07/07 06:22:24;;;;;;;6.50;3.57;;;19.20;99.90;;;;;;5017440;28;20456;-49
2021/07/07 06:24:52;;;;;;;3.80;3.30;;;19.20;99.90;;;;;;5017264;28;20468;-53
2021/07/07 06:27:19;;;;;;;3.07;2.67;;;19.20;99.90;;;;;;5017188;28;20771;-50
2021/07/07 06:29:46;;;;;;;5.43;3.57;;;19.20;99.90;;;;;;5017726;28;20503;-52
2021/07/07 06:32:14;;;;;;;7.23;4.00;;;19.30;99.90;;;;;;5017000;28;20503;-53
2021/07/07 06:34:43;;;;;;;6.47;3.13;;;19.00;99.90;;;;;;5017393;28;20470;-50
2021/07/07 06:37:10;;;;;;;6.87;3.63;;;19.00;99.90;;;;;;5017470;28;20468;-50
2021/07/07 06:39:39;;;;;;;5.67;3.23;;;19.00;99.90;;;;;;5017378;28;20460;-51
2021/07/07 06:42:06;;;;;;;7.27;3.50;;;19.10;99.90;;;;;;5017248;28;20522;-55
2021/07/07 06:44:34;;;;;;;4.33;3.47;;;18.90;99.90;;;;;;5017368;28;20442;-56
2021/07/07 06:47:01;;;;;;;6.13;3.13;;;18.90;99.90;;;;;;5017716;28;20733;-56
2021/07/07 06:49:28;;;;;;;7.27;3.30;;;18.90;99.90;;;;;;5017359;28;20468;-54
2021/07/07 06:51:55;;;;;;;7.03;3.40;;;18.90;99.90;;;;;;5017234;28;20467;-55
2021/07/07 06:54:22;;;;;;;4.73;3.40;;;18.90;99.90;;;;;;5017059;28;20468;-54
2021/07/07 06:56:53;;;;;;;8.10;3.90;;;18.90;99.90;;;;;;5017306;28;20472;-52
2021/07/07 06:59:20;;;;;;;4.13;3.53;;;19.10;99.90;;;;;;5016921;28;20468;-51
2021/07/07 07:01:50;;;;;;;5.67;3.30;;;19.50;99.90;;;;;;5016880;28;20948;-49
2021/07/07 07:04:23;;;;;;;5.70;3.40;;;19.80;99.90;;;;;;5012054;28;20894;-52
2021/07/07 07:06:50;;;;;;;5.30;3.43;;;19.80;99.90;;;;;;5016783;28;20460;-54
2021/07/07 07:09:17;;;;;;;4.80;3.13;;;19.70;99.90;;;;;;5016889;28;20463;-53
2021/07/07 07:11:48;;;;;;;7.10;3.70;;;19.70;99.90;;;;;;5016898;28;20464;-48
2021/07/07 07:14:19;;;;;;;6.30;3.37;;;19.80;99.90;;;;;;5016755;28;20614;-53
2021/07/07 07:16:46;;;;;;;7.70;3.80;;;20.10;99.90;;;;;;5017215;28;20932;-50
2021/07/07 07:19:14;;;;;;;6.57;3.80;;;20.20;99.90;;;;;;5017045;28;20471;-50
2021/07/07 07:21:43;;;;;;;5.00;3.10;;;20.30;99.90;;;;;;5017274;28;20472;-44
2021/07/07 07:24:11;;;;;;;8.63;4.20;;;20.30;99.90;;;;;;5016741;28;20463;-47
2021/07/07 07:26:40;;;;;;;5.93;3.90;;;20.20;99.90;;;;;;5016936;28;20490;-52
2021/07/07 07:29:07;;;;;;;3.50;3.20;;;20.20;99.90;;;;;;5016976;28;20931;-45
2021/07/07 07:31:36;;;;;;;7.37;3.83;;;20.30;99.90;;;;;;5017821;28;20472;-48
2021/07/07 07:34:03;;;;;;;6.40;3.00;;;20.20;99.90;;;;;;5020453;28;20549;-48
2021/07/07 07:36:30;;;;;;;8.20;3.80;;;20.00;99.90;;;;;;5020671;28;20757;-47
2021/07/07 07:39:04;;;;;;;7.20;3.30;;;20.30;99.90;;;;;;5020572;28;20788;-48
2021/07/07 07:41:32;;;;;;;4.90;3.80;;;20.40;99.90;;;;;;5020974;28;20475;-46
2021/07/07 07:43:59;;;;;;;5.63;3.53;;;20.70;99.90;;;;;;5020779;28;20459;-46
2021/07/07 07:46:28;;;;;;;7.53;3.50;;;20.70;99.90;;;;;;5020408;28;20467;-50
2021/07/07 07:48:59;;;;;;;7.00;3.60;;;20.90;99.90;;;;;;5019427;28;20472;-48
2021/07/07 07:51:28;;;;;;;4.23;3.33;;;21.20;99.90;;;;;;5020350;28;20468;-45
2021/07/07 07:53:58;;;;;;;4.20;2.50;;;21.20;99.90;;;;;;5020073;28;20495;-51
2021/07/07 07:56:31;;;;;;;5.37;3.70;;;21.40;99.90;;;;;;5019839;28;20500;-47
2021/07/07 08:36:36;;;;;;;7.00;3.13;;;24.40;83.70;;;;;;5368880;22;20475;-51
2021/07/07 08:39:03;;;;;;;5.10;3.30;;;24.30;80.70;;;;;;5039370;28;20735;-53
2021/07/07 08:41:36;;;;;;;5.40;3.43;;;24.40;77.70;;;;;;5039254;28;20887;-55
2021/07/07 08:44:03;;;;;;;6.23;3.43;;;24.40;80.60;;;;;;5038136;28;20451;-53
2021/07/07 08:46:31;;;;;;;3.20;2.80;;;24.30;80.70;;;;;;5038945;28;20976;-47
2021/07/07 08:48:58;;;;;;;4.43;2.87;;;25.00;79.40;;;;;;5039494;28;20461;-49
2021/07/07 08:51:25;;;;;;;7.00;3.40;;;25.40;79.40;;;;;;5038892;28;20463;-51
2021/07/07 08:53:54;;;;;;;5.50;3.77;;;25.30;77.60;;;;;;5038780;28;20503;-55
2021/07/07 08:56:21;;;;;;;7.20;3.20;;;25.30;75.50;;;;;;5038387;28;20471;-51
2021/07/07 08:58:51;;;;;;;7.07;3.47;;;25.20;78.10;;;;;;5039319;28;20743;-56
2021/07/07 09:01:19;;;;;;;6.27;4.17;;;24.70;78.60;;;;;;5039042;28;20463;-56
2021/07/07 09:03:46;;;;;;;6.90;3.90;;;24.80;78.90;;;;;;5026644;28;20558;-56
2021/07/07 09:13:09;;;;;;;6.40;3.40;;;25.90;66.80;;;;;;5025856;28;20466;-53
2021/07/07 09:15:36;;;;;;;5.00;2.80;;;26.50;65.00;;;;;;5026105;28;20452;-50
2021/07/07 09:18:03;;;;;;;5.30;3.13;;;26.10;64.30;;;;;;5028481;28;20508;-51
2021/07/07 09:20:37;;;;;;;8.00;3.70;;;25.90;65.90;;;;;;5028318;28;20515;-48
2021/07/07 09:23:15;;;;;;;4.63;2.87;;;25.90;65.60;;;;;;5027629;28;20753;-51
2021/07/07 09:25:53;;;;;;;6.20;3.20;;;26.20;64.50;;;;;;5018805;28;20456;-48
2021/07/07 09:28:23;;;;;;;9.00;3.90;;;26.30;64.40;;;;;;5026557;28;20452;-52
2021/07/07 09:51:04;;;;;;;10.60;3.47;;;26.40;62.60;;;;;;4173115;28;20505;-47
2021/07/07 09:53:31;;;;;;;5.50;2.73;;;26.90;58.60;;;;;;5034192;28;20495;-52
2021/07/07 09:55:59;;;;;;;6.00;3.83;;;26.10;59.10;;;;;;5032820;28;20459;-56
2021/07/07 09:58:27;;;;;;;3.93;2.73;;;26.00;60.70;;;;;;5023342;28;20534;-54
2021/07/07 10:00:55;;;;;;;5.10;2.93;;;26.00;59.90;;;;;;5025264;28;20464;-56
2021/07/07 10:03:25;;;;;;;5.00;3.50;;;26.90;59.70;;;;;;5013992;28;20468;-56
2021/07/07 10:05:52;;;;;;;4.63;3.33;;;27.00;58.30;;;;;;5022966;28;20536;-56
2021/07/07 10:08:22;;;;;;;5.20;3.47;;;26.20;58.60;;;;;;5015990;28;20480;-56
2021/07/07 10:10:49;;;;;;;5.80;3.43;;;25.10;61.00;;;;;;5019395;28;20526;-51
2021/07/07 10:13:16;;;;;;;7.90;3.60;;;24.60;63.40;;;;;;5016999;28;20491;-48
2021/07/07 10:15:47;;;;;;;3.40;3.10;;;24.20;63.90;;;;;;5018075;28;20522;-48
2021/07/07 10:18:14;;;;;;;6.40;3.60;;;23.90;67.10;;;;;;5031105;28;20538;-51
2021/07/07 10:20:41;;;;;;;5.60;2.77;;;23.70;67.50;;;;;;5018173;28;20888;-48
2021/07/07 10:23:10;;;;;;;8.53;6.50;;;24.40;68.90;;;;;;5017908;28;20459;-52
2021/07/07 10:25:40;;;;;;;6.93;3.47;;;25.40;66.90;;;;;;5017656;28;20522;-56
2021/07/07 10:28:09;;;;;;;5.80;3.57;;;25.50;64.80;;;;;;5018163;28;20733;-53
2021/07/07 10:30:50;;;;;;;5.90;3.43;;;25.60;62.70;;;;;;5018204;28;20456;-55
2021/07/07 10:33:21;;;;;;;4.83;3.40;;;25.10;61.70;;;;;;5018278;28;20499;-54
2021/07/07 10:35:49;;;;;;;8.10;3.20;;;24.50;64.80;;;;;;5037416;28;20442;-51
2021/07/07 10:38:17;;;;;;;5.23;3.97;;;25.10;65.60;;;;;;5037345;28;20495;-54
2021/07/07 10:40:52;;;;;;;3.90;3.27;;;26.10;64.50;;;;;;5037654;28;20471;-51
2021/07/07 11:18:38;;;;;;;5.47;3.47;;;25.80;57.80;;;;;;5545188;23;20538;31
2021/07/07 11:21:08;;;;;;;6.53;3.70;;;26.40;60.60;;;;;;4978887;28;20481;-49
2021/07/07 11:23:38;;;;;;;7.10;3.30;;;27.40;58.40;;;;;;4973848;28;20839;-56
2021/07/07 11:26:13;;;;;;;5.37;3.33;;;27.90;57.50;;;;;;4982281;28;20747;-54
2021/07/07 11:28:43;;;;;;;3.50;3.20;;;27.40;54.90;;;;;;4982268;28;20515;-55
2021/07/07 11:31:11;;;;;;;5.17;4.07;;;26.60;55.50;;;;;;4981735;28;20462;-54
2021/07/07 11:33:38;;;;;;;3.87;2.83;;;25.70;56.70;;;;;;4981589;28;20497;-54
2021/07/07 11:36:07;;;;;;;5.47;3.37;;;25.30;57.30;;;;;;4981656;28;20524;-55
2021/07/07 11:38:42;;;;;;;3.20;2.90;;;25.00;58.80;;;;;;4977408;28;20455;-54
2021/07/07 11:41:15;;;;;;;3.70;2.67;;;25.10;56.70;;;;;;5198689;23;20498;-54
2021/07/07 11:43:42;;;;;;;4.33;3.43;;;25.30;56.80;;;;;;5040759;28;20458;-54
2021/07/07 11:46:11;;;;;;;6.30;3.37;;;25.20;56.50;;;;;;5040105;28;20521;-51
2021/07/07 11:48:43;;;;;;;4.27;3.00;;;24.90;55.60;;;;;;5039985;28;20494;-51
2021/07/07 11:51:15;;;;;;;6.00;3.10;;;25.00;57.30;;;;;;5040202;28;20467;-49
2021/07/07 11:53:44;;;;;;;3.70;2.80;;;25.50;55.10;;;;;;5040340;28;20760;-50
2021/07/07 11:56:13;;;;;;;5.07;3.13;;;25.40;54.90;;;;;;5039987;28;20756;-45
2021/07/07 11:58:43;;;;;;;4.63;3.30;;;25.20;55.20;;;;;;5040616;28;20566;-48
2021/07/07 12:01:15;;;;;;;2.90;2.60;;;25.50;55.60;;;;;;5039419;28;20837;-48
2021/07/07 12:03:55;;;;;;;3.27;2.60;;;26.30;54.70;;;;;;5027074;28;20464;-54
2021/07/07 12:06:34;;;;;;;3.83;2.63;;;26.40;53.90;;;;;;5020536;28;20462;-48
2021/07/07 12:09:01;;;;;;;3.80;3.50;;;26.30;53.50;;;;;;5020110;28;20514;-50
2021/07/07 12:11:29;;;;;;;4.03;3.43;;;26.20;54.00;;;;;;5020005;28;20468;-51
2021/07/07 12:13:57;;;;;;;3.83;3.20;;;26.10;52.90;;;;;;5019926;28;20948;-51
2021/07/07 12:16:32;;;;;;;3.83;2.97;;;25.60;53.80;;;;;;5019809;28;20831;-47
2021/07/07 12:19:01;;;;;;;4.37;3.40;;;25.50;54.60;;;;;;5020344;28;20503;-49
2021/07/07 12:21:42;;;;;;;4.00;3.10;;;25.80;54.60;;;;;;5019581;28;20526;-52
2021/07/07 12:24:13;;;;;;;3.00;2.80;;;26.50;53.10;;;;;;5020412;28;20460;-50
2021/07/07 12:26:41;;;;;;;4.70;2.93;;;27.20;51.70;;;;;;5020492;28;20464;-53
2021/07/07 12:29:12;;;;;;;3.37;3.17;;;27.30;50.80;;;;;;5019518;28;20490;-51
2021/07/07 12:31:41;;;;;;;7.23;3.13;;;26.40;52.50;;;;;;5019640;28;20467;-52
2021/07/07 12:34:09;;;;;;;4.23;2.90;;;25.60;52.50;;;;;;5019959;28;20500;-47
2021/07/07 12:36:43;;;;;;;4.90;3.00;;;25.50;54.50;;;;;;5020270;28;20550;-50
2021/07/07 12:39:16;;;;;;;5.10;2.70;;;25.10;54.80;;;;;;5019262;28;20908;-52
2021/07/07 12:41:48;;;;;;;7.50;2.83;;;25.50;56.10;;;;;;5019193;28;20549;-53
2021/07/07 12:44:30;;;;;;;3.37;2.83;;;26.90;54.80;;;;;;5036297;28;20470;-54
2021/07/07 12:47:01;;;;;;;3.53;2.53;;;28.00;51.50;;;;;;5019330;28;20533;-56
2021/07/07 12:49:46;;;;;;;4.80;3.30;;;28.70;51.20;;;;;;5019484;28;20867;-51
2021/07/07 12:52:26;;;;;;;3.13;2.87;;;28.60;48.60;;;;;;5019545;28;20769;-52
2021/07/07 12:55:14;;;;;;;3.03;2.83;;;28.50;48.40;;;;;;5019599;28;20491;-55
2021/07/07 12:57:44;;;;;;;3.20;3.00;;;28.50;50.10;;;;;;5019022;28;20463;-55
2021/07/07 13:00:13;;;;;;;4.20;2.70;;;28.50;48.60;;;;;;5019347;28;20908;-50
2021/07/07 13:02:51;;;;;;;4.00;2.53;;;27.80;49.00;;;;;;5017548;28;20464;-55
2021/07/07 13:05:18;;;;;;;3.17;2.87;;;27.30;50.70;;;;;;5015639;28;20475;-51
2021/07/07 13:07:56;;;;;;;3.37;2.87;;;27.10;51.20;;;;;;5018837;28;20460;-49
2021/07/07 13:10:28;;;;;;;4.10;3.67;;;27.90;52.30;;;;;;5018812;28;20463;-51
2021/07/07 13:12:56;;;;;;;3.93;2.53;;;28.60;53.00;;;;;;5019013;28;20482;-52
2021/07/07 13:15:23;;;;;;;3.40;2.90;;;28.40;48.10;;;;;;5018624;28;20495;-54
2021/07/07 13:50:03;;;;;;;3.00;2.70;;;27.90;50.50;;;;;;5551927;23;20555;31
2021/07/07 13:52:32;;;;;;;3.30;2.93;;;27.40;50.10;;;;;;4997109;28;20932;-55
2021/07/07 13:54:59;;;;;;;3.40;3.00;;;26.50;51.10;;;;;;4998846;28;20587;-52
2021/07/07 13:57:26;;;;;;;3.93;3.47;;;25.60;52.30;;;;;;4998180;28;20894;-56
2021/07/07 13:59:53;;;;;;;3.27;2.87;;;25.00;53.40;;;;;;4998204;28;20465;-55
2021/07/07 14:02:28;;;;;;;3.13;2.83;;;24.80;54.00;;;;;;4982337;28;20957;-56
2021/07/07 14:04:57;;;;;;;3.30;3.00;;;24.50;55.00;;;;;;4973547;28;20465;-53
2021/07/07 14:07:24;;;;;;;6.93;3.30;;;24.60;55.40;;;;;;4978691;28;20556;-53
2021/07/07 14:09:55;;;;;;;4.27;3.60;;;24.20;55.00;;;;;;4991748;28;20461;-55
2021/07/07 14:12:27;;;;;;;5.83;3.47;;;23.90;55.70;;;;;;4998344;28;20523;-53
2021/07/07 14:14:54;;;;;;;4.00;3.00;;;23.70;56.40;;;;;;4978961;28;20497;-52
2021/07/07 14:17:24;;;;;;;3.83;3.37;;;23.70;57.00;;;;;;4978707;28;20924;-48
2021/07/07 14:19:58;;;;;;;5.47;3.13;;;23.60;57.30;;;;;;4978818;28;20497;-52
2021/07/07 14:22:25;;;;;;;4.83;3.10;;;23.60;57.50;;;;;;4990032;28;20516;-52
2021/07/07 14:24:53;;;;;;;4.70;3.30;;;23.60;57.90;;;;;;4997853;28;20461;-51
2021/07/07 14:27:27;;;;;;;3.53;3.23;;;23.70;58.10;;;;;;4997543;28;20539;-55
2021/07/07 14:29:54;;;;;;;5.80;3.40;;;23.80;58.30;;;;;;4997377;28;20508;-54
2021/07/07 14:32:21;;;;;;;3.23;2.77;;;23.70;58.10;;;;;;4998161;28;20465;-52
2021/07/07 14:34:52;;;;;;;3.00;2.77;;;23.80;58.60;;;;;;4998158;28;20587;-51
2021/07/07 14:37:19;;;;;;;3.27;2.97;;;24.10;58.60;;;;;;4997554;28;20551;-52
2021/07/07 14:39:46;;;;;;;3.23;2.93;;;24.30;57.80;;;;;;4983218;28;20458;-54
2021/07/07 14:42:20;;;;;;;3.70;3.37;;;24.70;57.80;;;;;;4977783;28;20470;-53
2021/07/07 14:44:48;;;;;;;5.40;3.30;;;26.00;57.90;;;;;;4978517;28;20752;-56
2021/07/07 14:47:15;;;;;;;3.53;3.23;;;26.40;54.50;;;;;;4978516;28;20552;-51
2021/07/07 14:49:42;;;;;;;5.43;2.93;;;26.10;54.30;;;;;;4978257;28;20474;-53
2021/07/07 14:52:10;;;;;;;4.90;3.17;;;26.00;54.60;;;;;;4995201;28;20591;-53
2021/07/07 14:54:40;;;;;;;5.30;3.00;;;25.90;55.10;;;;;;4997565;28;20787;-51
2021/07/07 14:57:07;;;;;;;3.63;2.87;;;26.00;54.40;;;;;;4998043;28;20519;-49
2021/07/07 14:59:36;;;;;;;3.27;2.97;;;26.00;54.50;;;;;;4997674;28;20461;-56
2021/07/07 15:02:05;;;;;;;4.77;2.73;;;26.30;54.90;;;;;;4997571;28;20959;-56
2021/07/07 15:04:32;;;;;;;5.87;3.00;;;27.00;53.90;;;;;;4992940;28;20468;-57
2021/07/07 15:07:00;;;;;;;3.60;3.30;;;27.20;52.90;;;;;;4997688;28;20513;-58
2021/07/07 15:09:27;;;;;;;6.67;3.30;;;27.10;52.50;;;;;;4996867;28;20461;-57
2021/07/07 15:11:55;;;;;;;4.10;3.43;;;27.50;52.70;;;;;;4998110;28;20473;-57
2021/07/07 15:14:25;;;;;;;3.90;2.90;;;27.60;52.40;;;;;;5011477;28;20591;-57
2021/07/07 15:16:53;;;;;;;5.70;3.30;;;28.10;51.70;;;;;;5013319;28;20463;-57
2021/07/07 15:19:23;;;;;;;4.13;3.57;;;28.30;51.10;;;;;;5003284;28;20464;-56
2021/07/07 15:21:53;;;;;;;5.60;2.93;;;28.20;50.40;;;;;;5004792;28;20456;-57
2021/07/07 15:24:20;;;;;;;3.93;3.30;;;27.70;50.60;;;;;;5011378;28;20777;-56
2021/07/07 15:26:47;;;;;;;4.23;2.90;;;27.90;49.60;;;;;;5002392;28;20924;-55
2021/07/07 15:29:14;;;;;;;4.27;2.93;;;28.00;49.30;;;;;;4995151;28;20465;-54
2021/07/07 15:31:41;;;;;;;3.73;2.90;;;28.20;49.60;;;;;;4995937;28;20465;-54
2021/07/07 15:34:09;;;;;;;3.07;2.83;;;27.90;49.20;;;;;;4996397;28;20493;-53
2021/07/07 15:36:39;;;;;;;3.23;3.03;;;27.20;50.60;;;;;;4996056;28;20902;-54
2021/07/07 15:39:06;;;;;;;3.27;2.97;;;26.70;51.40;;;;;;5004442;28;20762;-55
2021/07/07 15:41:33;;;;;;;3.80;2.77;;;26.40;52.20;;;;;;5016147;28;20468;-53
2021/07/07 15:44:00;;;;;;;4.60;3.47;;;26.60;52.50;;;;;;5016614;28;20534;-53
2021/07/07 15:46:30;;;;;;;3.40;2.33;;;27.10;52.30;;;;;;5016694;28;20464;-54
2021/07/07 15:48:57;;;;;;;4.13;3.67;;;27.10;50.70;;;;;;5017056;28;20463;-53
2021/07/07 16:28:16;;;;;;;4.03;3.20;;;25.60;52.80;;;;;;5468854;22;20750;-56
2021/07/07 16:30:43;;;;;;;4.40;3.90;;;24.90;54.40;;;;;;5008528;28;20436;-49
2021/07/07 16:33:20;;;;;;;5.23;3.53;;;24.60;56.00;;;;;;5012767;28;20967;-54
2021/07/07 16:35:48;;;;;;;3.80;3.30;;;24.20;57.20;;;;;;5019853;28;20500;-51
2021/07/07 16:38:15;;;;;;;3.47;3.17;;;24.00;57.50;;;;;;5016153;28;20471;-54
2021/07/07 16:40:52;;;;;;;3.63;3.33;;;23.60;57.60;;;;;;5000191;28;20475;-52
2021/07/07 16:43:25;;;;;;;3.50;3.30;;;23.50;59.10;;;;;;4999824;28;20972;-53
2021/07/07 16:45:52;;;;;;;5.67;3.83;;;23.50;59.10;;;;;;4999638;28;20461;-51
2021/07/07 16:48:19;;;;;;;3.90;3.43;;;23.50;58.80;;;;;;4998429;28;20572;-50
2021/07/07 16:50:49;;;;;;;4.30;3.40;;;23.60;58.80;;;;;;4997558;28;20461;-53
2021/07/07 16:53:16;;;;;;;3.80;3.40;;;23.60;59.10;;;;;;4998419;28;20465;-49
2021/07/07 16:55:45;;;;;;;3.77;3.37;;;23.60;59.30;;;;;;4999738;28;20949;-52
2021/07/07 16:58:12;;;;;;;7.77;5.33;;;23.40;59.30;;;;;;4999347;28;20490;-51
2021/07/07 17:00:41;;;;;;;3.80;3.30;;;23.40;60.10;;;;;;4999561;28;20473;-53
2021/07/07 17:03:11;;;;;;;4.43;4.13;;;23.40;60.50;;;;;;4997814;28;20484;-51
2021/07/07 17:05:47;;;;;;;4.47;3.17;;;23.40;61.00;;;;;;5000675;28;20461;-52
2021/07/07 17:08:14;;;;;;;3.93;3.53;;;23.40;60.50;;;;;;5015526;28;20796;-52
2021/07/07 17:10:41;;;;;;;6.77;2.97;;;23.30;61.00;;;;;;4999547;28;20439;-52